KNOW

Details ICAO KNOW (NOW)
Name PORT ANGELES CGAS
Region United States
Timezone Unknown (UTC+0.0)
Plans Departing 9
Arriving 16
Stats Elevation 13 ft / 4 m (AMSL)
Location 48.141293° -123.413955°
Runways 1
Magnetic Variation 15.980° E
Sunrise 2018-05-21 12:28:37 UTC / 2018-05-21 12:28:37 Local
Sunset 2018-05-22 03:54:46 UTC / 2018-05-22 03:54:46 Local
Advertisement - Login to hide

Runways

ID Width Length Bearing (true) Bearing (mag) Surface Threshold Offset Overrun Length
07 151 ft / 46 m 4,488 ft / 1,368 m 93.55° 77.57° Asphalt 0 ft / 0 m 0 ft / 0 m
25 151 ft / 46 m 4,488 ft / 1,368 m 273.57° 257.59° Asphalt 0 ft / 0 m 0 ft / 0 m

Map

Weather


0- 5 10 15 20 25 30 35+ Temperature / ° C

Clouds and Precipitation
Forecast for 2018-05-22 06:00 UTC. Updated 2 hours ago

Ground ~20,000 ft ~40,000 ft Winds

METAR

KNOW 220655Z AUTO 26010KT 10SM CLR 11/09 A3002 RMK AO2 T01100086 401410099

TAF

Not found

Frequencies

Unicom 122.98 MHz CTAF
Approach 118.20 MHz WHIDBEY APP
Warning: Do not use this data for real-world aviation or navigation. No guarantee of current accuracy is given.